Time;durP1;ratioP1;P1;durP2;ratioP2;P2;SDS_P1;SDS_P2;PMS_P1;PMS_P2;Temp;Humidity;BMP_temperature;BMP_pressure;BME280_temperature;BME280_humidity;BME280_pressure;Samples;Min_cycle;Max_cycle;Signal;HPM_P1;HPM_P2
2020/11/18 00:09:07;;;;;;;21.2;12.3;;;;;;;6.7;75.59277;99932.25;;;;
2020/11/18 00:19:05;;;;;;;22.4;14.8;;;;;;;6.41;76.45703;99941.53;;;;
2020/11/18 00:29:04;;;;;;;18.4;12.6;;;;;;;6.44;75.90527;99933.81;;;;
2020/11/18 00:39:02;;;;;;;14.9;12.8;;;;;;;6.6;75.2168;99934.81;;;;
2020/11/18 00:49:00;;;;;;;14.2;11.5;;;;;;;6.72;74.63281;99932.83;;;;
2020/11/18 00:58:59;;;;;;;13.7;10.9;;;;;;;6.73;74.27637;99942.5;;;;
2020/11/18 01:08:57;;;;;;;15.1;11.1;;;;;;;6.54;74.40137;99931.27;;;;
2020/11/18 01:18:56;;;;;;;14.7;9.2;;;;;;;6.5;73.63281;99921.28;;;;
2020/11/18 01:28:54;;;;;;;14.2;9.8;;;;;;;6.58;74.01758;99919;;;;
2020/11/18 01:38:52;;;;;;;14.3;8.2;;;;;;;6.84;72.84082;99933.5;;;;
2020/11/18 01:48:50;;;;;;;11.2;8;;;;;;;6.98;72.15723;99929.38;;;;
2020/11/18 01:58:49;;;;;;;10.9;8.5;;;;;;;7.02;71.50391;99946.59;;;;
2020/11/18 02:08:47;;;;;;;11.4;8.2;;;;;;;7.21;70.9502;99954.3;;;;
2020/11/18 02:18:45;;;;;;;9.9;7.3;;;;;;;7.35;69.12207;99955.53;;;;
2020/11/18 02:28:44;;;;;;;13;7.2;;;;;;;7.43;69.56152;99944.33;;;;
2020/11/18 02:38:42;;;;;;;11.9;6.8;;;;;;;7.47;68.60254;99945.44;;;;
2020/11/18 02:48:41;;;;;;;10.9;6.7;;;;;;;7.27;69.50391;99935.33;;;;
2020/11/18 02:58:39;;;;;;;8.1;6.6;;;;;;;7.03;70.38477;99945.53;;;;
2020/11/18 03:08:37;;;;;;;12.4;6.2;;;;;;;7;70.61523;99962.13;;;;
2020/11/18 03:18:36;;;;;;;12.7;7;;;;;;;6.97;71.42969;99954.58;;;;
2020/11/18 03:28:34;;;;;;;22.1;17.2;;;;;;;6.91;72.14551;99966.28;;;;
2020/11/18 03:38:33;;;;;;;15.4;9.7;;;;;;;6.84;72.56055;99971.02;;;;
2020/11/18 03:48:31;;;;;;;12.1;8.7;;;;;;;6.9;72.03223;99963.87;;;;
2020/11/18 03:58:29;;;;;;;11.2;8.6;;;;;;;6.95;72.1084;99962.05;;;;
2020/11/18 04:08:28;;;;;;;10.2;6.8;;;;;;;6.99;72.08105;99957;;;;
2020/11/18 04:18:26;;;;;;;10.7;7.5;;;;;;;7.05;72.30566;99959.48;;;;
2020/11/18 04:28:25;;;;;;;17.9;10.6;;;;;;;7.14;72.4082;99956.37;;;;
2020/11/18 04:38:23;;;;;;;15.7;11.9;;;;;;;7.16;72.37793;99959.59;;;;
2020/11/18 04:48:21;;;;;;;16.8;13.4;;;;;;;7.11;72.99609;99970.28;;;;
2020/11/18 04:58:20;;;;;;;21.2;14.8;;;;;;;7.07;73.37109;99969.97;;;;
2020/11/18 05:08:18;;;;;;;19.4;15.4;;;;;;;7.03;73.99316;99996.47;;;;
2020/11/18 05:18:17;;;;;;;23.5;15.9;;;;;;;6.96;74.38184;100005.7;;;;
2020/11/18 05:28:20;;;;;;;23;16.5;;;;;;;6.93;75.01563;100003.6;;;;
2020/11/18 05:38:16;;;;;;;17.8;15.3;;;;;;;6.9;75.40234;100012.9;;;;
2020/11/18 05:48:12;;;;;;;26.1;18.8;;;;;;;6.92;75.76367;100023.4;;;;
2020/11/18 05:58:10;;;;;;;25;15.2;;;;;;;6.95;75.82617;100022.9;;;;
2020/11/18 06:08:09;;;;;;;14.1;11.5;;;;;;;6.96;75.71387;100019.1;;;;
2020/11/18 06:18:07;;;;;;;11.3;6.8;;;;;;;7.04;75.51563;100016;;;;
2020/11/18 06:28:06;;;;;;;12.1;6.6;;;;;;;7.11;74.11816;100008.6;;;;
2020/11/18 06:38:04;;;;;;;8;5.4;;;;;;;7.12;74.38867;100023.6;;;;
2020/11/18 06:48:02;;;;;;;17.6;10.5;;;;;;;7.15;75.07617;100025.8;;;;
2020/11/18 06:58:01;;;;;;;33.2;27;;;;;;;7.15;75.44434;100038.4;;;;
2020/11/18 07:07:59;;;;;;;38.1;30.9;;;;;;;7.13;76.32617;100037.8;;;;
2020/11/18 07:17:58;;;;;;;25.8;21.6;;;;;;;7.43;76.52539;100024.8;;;;
2020/11/18 07:27:56;;;;;;;42.6;30.4;;;;;;;7.92;75.53613;100031.7;;;;
2020/11/18 07:37:55;;;;;;;30.9;21.8;;;;;;;8.3;73.97363;100044.2;;;;
2020/11/18 07:47:53;;;;;;;25.3;18.1;;;;;;;8.76;71.79102;100045.3;;;;
2020/11/18 07:57:52;;;;;;;32.3;15.5;;;;;;;9.27;69.54102;100048.2;;;;
2020/11/18 08:07:51;;;;;;;21.3;14.8;;;;;;;9.35;69.61035;100045.1;;;;
2020/11/18 08:17:49;;;;;;;22.3;14.4;;;;;;;9.46;69.13086;100044;;;;
2020/11/18 08:27:48;;;;;;;25;17.9;;;;;;;9.57;68.65332;100048.4;;;;
2020/11/18 08:37:50;;;;;;;16.3;13.2;;;;;;;9.85;67.48828;100039.8;;;;
2020/11/18 08:47:46;;;;;;;16.7;12.5;;;;;;;10.46;67.03906;100039.9;;;;
2020/11/18 08:57:45;;;;;;;17.1;9.7;;;;;;;10.88;65.74609;100040.3;;;;
2020/11/18 09:07:44;;;;;;;11.5;7.5;;;;;;;11.43;63.69531;100043.9;;;;
2020/11/18 09:17:42;;;;;;;12.5;7.7;;;;;;;11.97;63.11523;100036.6;;;;
2020/11/18 09:27:41;;;;;;;8.4;5.5;;;;;;;12.64;60.83203;100040.4;;;;
2020/11/18 09:37:41;;;;;;;4.9;3;;;;;;;12.63;60.80664;100040.7;;;;
2020/11/18 09:47:40;;;;;;;7.1;3.6;;;;;;;12.57;60.51465;100045.3;;;;
2020/11/18 09:57:39;;;;;;;11.2;5.1;;;;;;;12.64;60.12598;100037.7;;;;
2020/11/18 10:07:38;;;;;;;9.2;5.3;;;;;;;12.63;60.38477;100030.7;;;;
2020/11/18 10:17:37;;;;;;;7.6;4.5;;;;;;;12.97;59.54395;100004.3;;;;
2020/11/18 10:27:36;;;;;;;11.1;7.5;;;;;;;13.34;59.85449;99994.67;;;;
2020/11/18 10:37:35;;;;;;;13.4;8.3;;;;;;;12.87;59.66602;100001.7;;;;
2020/11/18 10:47:34;;;;;;;15.6;7.2;;;;;;;12.66;60.74219;100002.2;;;;
2020/11/18 10:57:33;;;;;;;11.5;7.2;;;;;;;13.21;59.91797;100000.8;;;;
2020/11/18 11:07:33;;;;;;;11.8;6.6;;;;;;;13.16;60.44727;100001.7;;;;
2020/11/18 11:17:32;;;;;;;9.3;6.7;;;;;;;13.2;59.60938;99986.45;;;;
2020/11/18 11:27:31;;;;;;;9.7;6;;;;;;;13.16;60.60645;99981.91;;;;
2020/11/18 11:37:30;;;;;;;19.9;6.5;;;;;;;12.96;60.08984;99981.05;;;;
2020/11/18 11:47:29;;;;;;;15.5;6.7;;;;;;;13;60.35547;99970.45;;;;
2020/11/18 11:57:28;;;;;;;9.5;7.3;;;;;;;12.99;60.50391;99964.22;;;;
2020/11/18 12:07:27;;;;;;;10.1;5.3;;;;;;;12.9;59.89746;99965.16;;;;
2020/11/18 12:17:26;;;;;;;9.8;5.5;;;;;;;12.77;60.53027;99966.67;;;;
2020/11/18 12:27:26;;;;;;;9.8;6.9;;;;;;;12.9;61.8584;99970.57;;;;
2020/11/18 12:47:24;;;;;;;11.2;7.4;;;;;;;13.03;59.62109;99959.84;;;;
2020/11/18 12:57:23;;;;;;;10.8;6.2;;;;;;;12.83;60.06055;99949.27;;;;
2020/11/18 13:07:22;;;;;;;7.8;5.5;;;;;;;12.73;59.85254;99941.28;;;;
2020/11/18 13:17:21;;;;;;;10.9;8;;;;;;;12.57;61.0498;99940.63;;;;
2020/11/18 13:27:21;;;;;;;10.8;6.8;;;;;;;12.48;62.25391;99941.55;;;;
2020/11/18 13:37:20;;;;;;;9.6;5.6;;;;;;;12.41;61.61914;99943.8;;;;
2020/11/18 13:47:19;;;;;;;10.1;7.3;;;;;;;12.37;62.53516;99931.93;;;;
2020/11/18 13:57:18;;;;;;;9.2;5.9;;;;;;;12.19;63.73633;99929.94;;;;
2020/11/18 14:07:17;;;;;;;14.7;9.1;;;;;;;12.03;64.52051;99926.59;;;;
2020/11/18 14:17:16;;;;;;;13.3;9.6;;;;;;;11.83;64.76465;99924.88;;;;
2020/11/18 14:47:13;;;;;;;31.4;26.2;;;;;;;11.28;67.3125;99927.94;;;;
2020/11/18 14:57:12;;;;;;;22;17.4;;;;;;;11.07;67.53223;99928.03;;;;
2020/11/18 15:07:11;;;;;;;107.2;82.5;;;;;;;10.92;68.44727;99936.21;;;;
2020/11/18 15:17:10;;;;;;;40;27.4;;;;;;;10.78;69.30859;99937.89;;;;
2020/11/18 15:27:09;;;;;;;22.9;15;;;;;;;10.69;68.91992;99931.43;;;;
2020/11/18 15:37:08;;;;;;;20.5;15;;;;;;;10.63;69.47656;99927.14;;;;
2020/11/18 15:47:13;;;;;;;27;22.1;;;;;;;10.51;70.16895;99913.18;;;;
2020/11/18 15:57:05;;;;;;;35.2;24.1;;;;;;;10.42;70.17676;99912.11;;;;
2020/11/18 16:07:05;;;;;;;30.8;24.5;;;;;;;10.44;70.36133;99904.58;;;;
2020/11/18 16:17:05;;;;;;;29;20.7;;;;;;;10.36;70.61914;99891.66;;;;
2020/11/18 16:27:05;;;;;;;33.2;19.1;;;;;;;10.17;70.82617;99894.11;;;;
2020/11/18 16:37:01;;;;;;;23.5;19.2;;;;;;;9.97;71.04199;99896.81;;;;
2020/11/18 16:46:59;;;;;;;24.8;17.3;;;;;;;9.55;71.98828;99883.64;;;;
2020/11/18 16:56:58;;;;;;;22.3;14.9;;;;;;;9.06;73.83105;99872.55;;;;
2020/11/18 17:06:56;;;;;;;29.8;16.3;;;;;;;8.7;75.5918;99865.47;;;;
2020/11/18 17:16:55;;;;;;;21.8;15.5;;;;;;;8.55;75.70313;99856.28;;;;
2020/11/18 17:26:54;;;;;;;17.5;13.9;;;;;;;8.38;76.40137;99847.61;;;;
2020/11/18 17:36:52;;;;;;;24.4;16.2;;;;;;;8.22;76.50781;99840.53;;;;
2020/11/18 17:46:50;;;;;;;19.4;15.3;;;;;;;8.1;76.95703;99829.18;;;;
2020/11/18 17:56:49;;;;;;;17.7;14.2;;;;;;;7.87;77.91602;99829.59;;;;
2020/11/18 18:06:47;;;;;;;19.7;15.7;;;;;;;7.8;77.7793;99824.45;;;;
2020/11/18 18:16:46;;;;;;;17.9;15;;;;;;;7.62;78.38477;99802.59;;;;
2020/11/18 18:26:44;;;;;;;18.2;12.2;;;;;;;7.43;78.6416;99802.17;;;;
2020/11/18 18:36:43;;;;;;;21.7;15.2;;;;;;;7.11;78.65039;99787.98;;;;
2020/11/18 18:46:41;;;;;;;29.6;24;;;;;;;6.81;78.6084;99783.14;;;;
2020/11/18 18:56:39;;;;;;;20.9;16.7;;;;;;;6.43;79.23242;99762.67;;;;
2020/11/18 19:06:38;;;;;;;21.9;15.7;;;;;;;6.16;80.63281;99748.45;;;;
2020/11/18 19:16:36;;;;;;;27.2;17.2;;;;;;;5.86;80.62207;99744.36;;;;
2020/11/18 19:26:34;;;;;;;20.1;18;;;;;;;5.61;81.19922;99735.95;;;;
2020/11/18 19:36:32;;;;;;;27;19.7;;;;;;;5.37;81.13184;99729.2;;;;
2020/11/18 19:46:30;;;;;;;22.1;19.8;;;;;;;5.16;82.50488;99724.6;;;;
2020/11/18 19:56:28;;;;;;;23.6;17.9;;;;;;;5.06;84.0332;99718.06;;;;
2020/11/18 20:06:26;;;;;;;20.2;17.3;;;;;;;4.95;83.57715;99702.11;;;;
2020/11/18 20:16:24;;;;;;;19.4;14.9;;;;;;;4.88;84.12988;99699.61;;;;
2020/11/18 20:26:22;;;;;;;31.6;27;;;;;;;4.85;84.72461;99697.42;;;;
2020/11/18 20:36:20;;;;;;;18.5;15.9;;;;;;;4.96;86.35645;99680.48;;;;
2020/11/18 20:46:18;;;;;;;25;18.8;;;;;;;4.84;84.47852;99677.09;;;;
2020/11/18 20:56:16;;;;;;;27.1;19.8;;;;;;;4.69;85.37988;99665.34;;;;
2020/11/18 21:06:14;;;;;;;18.5;16;;;;;;;4.61;85.31934;99663.1;;;;
2020/11/18 21:16:12;;;;;;;29.8;19.6;;;;;;;4.44;84.30859;99647.08;;;;
2020/11/18 21:26:10;;;;;;;28.1;19.1;;;;;;;4.47;85.94727;99643.92;;;;
2020/11/18 21:36:08;;;;;;;25.6;20.1;;;;;;;4.38;85.08594;99645.36;;;;
2020/11/18 21:46:06;;;;;;;22.5;17;;;;;;;4.23;84.53516;99631.77;;;;
2020/11/18 21:56:06;;;;;;;26.5;20.5;;;;;;;4.09;85.90625;99615.26;;;;
2020/11/18 22:16:00;;;;;;;38.1;24.6;;;;;;;3.74;84.45215;99618.08;;;;
2020/11/18 22:25:58;;;;;;;33;21.6;;;;;;;3.67;86.13184;99604.08;;;;
2020/11/18 22:35:56;;;;;;;21.9;14;;;;;;;3.54;85.31934;99594.48;;;;
2020/11/18 22:45:54;;;;;;;25.1;16.1;;;;;;;3.45;86.30859;99603.1;;;;
2020/11/18 22:55:52;;;;;;;14.1;9.1;;;;;;;3.54;85.91699;99575.83;;;;
2020/11/18 23:05:50;;;;;;;14.3;10.7;;;;;;;3.34;85.41309;99570.11;;;;
2020/11/18 23:15:48;;;;;;;21.1;12.9;;;;;;;3.19;85.63574;99566.34;;;;
2020/11/18 23:25:46;;;;;;;13.4;8.2;;;;;;;3.05;85.71094;99542.61;;;;
2020/11/18 23:35:44;;;;;;;19.8;12.5;;;;;;;3;87.22559;99537.2;;;;
2020/11/18 23:45:42;;;;;;;15;11.6;;;;;;;2.99;87.14551;99535.58;;;;
2020/11/18 23:55:39;;;;;;;19.4;12.8;;;;;;;2.91;87.05273;99527.97;;;;
